sensor_id;sensor_type;location;lat;lon;timestamp;P1;durP1;ratioP1;P2;durP2;ratioP2
13090;SDS011;6611;52.604;13.438;2022-10-16T00:05:02;1.30;;;1.20;;
13090;SDS011;6611;52.604;13.438;2022-10-16T00:10:03;1.27;;;1.10;;
13090;SDS011;6611;52.604;13.438;2022-10-16T00:15:06;1.20;;;1.10;;
13090;SDS011;6611;52.604;13.438;2022-10-16T00:20:09;1.30;;;1.20;;
13090;SDS011;6611;52.604;13.438;2022-10-16T00:25:11;1.50;;;1.40;;
13090;SDS011;6611;52.604;13.438;2022-10-16T00:30:12;1.40;;;1.30;;
13090;SDS011;6611;52.604;13.438;2022-10-16T00:35:15;1.20;;;1.10;;
13090;SDS011;6611;52.604;13.438;2022-10-16T00:40:17;1.73;;;1.17;;
13090;SDS011;6611;52.604;13.438;2022-10-16T00:45:19;2.60;;;1.20;;
13090;SDS011;6611;52.604;13.438;2022-10-16T00:50:24;1.30;;;1.20;;
13090;SDS011;6611;52.604;13.438;2022-10-16T00:55:29;1.07;;;0.90;;
13090;SDS011;6611;52.604;13.438;2022-10-16T01:00:31;1.40;;;1.27;;
13090;SDS011;6611;52.604;13.438;2022-10-16T01:05:35;1.07;;;1.00;;
13090;SDS011;6611;52.604;13.438;2022-10-16T01:10:40;1.30;;;1.20;;
13090;SDS011;6611;52.604;13.438;2022-10-16T01:15:50;1.43;;;1.17;;
13090;SDS011;6611;52.604;13.438;2022-10-16T01:20:59;1.27;;;1.10;;
13090;SDS011;6611;52.604;13.438;2022-10-16T01:26:10;1.13;;;1.00;;
13090;SDS011;6611;52.604;13.438;2022-10-16T01:31:22;2.07;;;1.23;;
13090;SDS011;6611;52.604;13.438;2022-10-16T01:36:28;1.20;;;1.03;;
13090;SDS011;6611;52.604;13.438;2022-10-16T01:41:36;1.10;;;1.00;;
13090;SDS011;6611;52.604;13.438;2022-10-16T01:46:44;1.10;;;1.00;;
13090;SDS011;6611;52.604;13.438;2022-10-16T01:51:49;1.07;;;1.03;;
13090;SDS011;6611;52.604;13.438;2022-10-16T01:56:54;0.90;;;0.90;;
13090;SDS011;6611;52.604;13.438;2022-10-16T02:01:59;2.00;;;1.00;;
13090;SDS011;6611;52.604;13.438;2022-10-16T02:07:02;1.17;;;1.03;;
13090;SDS011;6611;52.604;13.438;2022-10-16T02:12:06;1.33;;;1.23;;
13090;SDS011;6611;52.604;13.438;2022-10-16T02:17:16;1.40;;;1.30;;
13090;SDS011;6611;52.604;13.438;2022-10-16T02:22:20;1.20;;;1.10;;
13090;SDS011;6611;52.604;13.438;2022-10-16T02:27:26;1.03;;;0.93;;
13090;SDS011;6611;52.604;13.438;2022-10-16T02:32:36;1.50;;;1.10;;
13090;SDS011;6611;52.604;13.438;2022-10-16T02:37:41;1.43;;;1.10;;
13090;SDS011;6611;52.604;13.438;2022-10-16T02:42:43;1.60;;;1.00;;
13090;SDS011;6611;52.604;13.438;2022-10-16T02:47:46;1.53;;;1.00;;
13090;SDS011;6611;52.604;13.438;2022-10-16T02:52:48;1.20;;;1.10;;
13090;SDS011;6611;52.604;13.438;2022-10-16T02:57:49;0.90;;;0.90;;
13090;SDS011;6611;52.604;13.438;2022-10-16T03:02:52;1.00;;;0.80;;
13090;SDS011;6611;52.604;13.438;2022-10-16T03:07:54;1.30;;;1.00;;
13090;SDS011;6611;52.604;13.438;2022-10-16T03:12:55;1.27;;;1.03;;
13090;SDS011;6611;52.604;13.438;2022-10-16T03:17:58;1.53;;;1.03;;
13090;SDS011;6611;52.604;13.438;2022-10-16T03:23:00;1.27;;;1.10;;
13090;SDS011;6611;52.604;13.438;2022-10-16T03:28:02;1.03;;;0.93;;
13090;SDS011;6611;52.604;13.438;2022-10-16T03:33:06;1.17;;;1.00;;
13090;SDS011;6611;52.604;13.438;2022-10-16T03:38:07;1.70;;;1.00;;
13090;SDS011;6611;52.604;13.438;2022-10-16T03:43:09;1.40;;;1.07;;
13090;SDS011;6611;52.604;13.438;2022-10-16T03:48:11;1.27;;;1.17;;
13090;SDS011;6611;52.604;13.438;2022-10-16T03:53:13;1.53;;;1.37;;
13090;SDS011;6611;52.604;13.438;2022-10-16T03:58:15;1.40;;;1.30;;
13090;SDS011;6611;52.604;13.438;2022-10-16T04:03:18;1.40;;;1.30;;
13090;SDS011;6611;52.604;13.438;2022-10-16T04:08:19;1.37;;;1.10;;
13090;SDS011;6611;52.604;13.438;2022-10-16T04:13:21;2.27;;;1.17;;
13090;SDS011;6611;52.604;13.438;2022-10-16T04:18:24;1.63;;;1.10;;
13090;SDS011;6611;52.604;13.438;2022-10-16T04:23:27;1.47;;;1.37;;
13090;SDS011;6611;52.604;13.438;2022-10-16T04:28:28;1.40;;;1.30;;
13090;SDS011;6611;52.604;13.438;2022-10-16T04:33:31;1.47;;;1.27;;
13090;SDS011;6611;52.604;13.438;2022-10-16T04:38:33;2.13;;;1.50;;
13090;SDS011;6611;52.604;13.438;2022-10-16T04:43:35;1.23;;;1.13;;
13090;SDS011;6611;52.604;13.438;2022-10-16T04:48:37;1.20;;;1.00;;
13090;SDS011;6611;52.604;13.438;2022-10-16T04:53:39;1.30;;;1.10;;
13090;SDS011;6611;52.604;13.438;2022-10-16T04:58:40;1.53;;;1.30;;
13090;SDS011;6611;52.604;13.438;2022-10-16T05:03:43;1.27;;;1.10;;
13090;SDS011;6611;52.604;13.438;2022-10-16T05:08:45;1.30;;;1.20;;
13090;SDS011;6611;52.604;13.438;2022-10-16T05:13:46;1.47;;;1.30;;
13090;SDS011;6611;52.604;13.438;2022-10-16T05:18:49;1.27;;;1.17;;
13090;SDS011;6611;52.604;13.438;2022-10-16T05:23:52;1.30;;;1.20;;
13090;SDS011;6611;52.604;13.438;2022-10-16T05:28:55;1.90;;;1.20;;
13090;SDS011;6611;52.604;13.438;2022-10-16T05:33:59;1.50;;;1.40;;
13090;SDS011;6611;52.604;13.438;2022-10-16T05:39:00;1.43;;;1.33;;
13090;SDS011;6611;52.604;13.438;2022-10-16T05:44:03;1.93;;;1.70;;
13090;SDS011;6611;52.604;13.438;2022-10-16T05:49:07;2.00;;;1.57;;
13090;SDS011;6611;52.604;13.438;2022-10-16T05:54:08;2.53;;;1.40;;
13090;SDS011;6611;52.604;13.438;2022-10-16T05:59:10;2.37;;;1.90;;
13090;SDS011;6611;52.604;13.438;2022-10-16T06:04:13;1.60;;;1.50;;
13090;SDS011;6611;52.604;13.438;2022-10-16T06:09:14;2.20;;;1.80;;
13090;SDS011;6611;52.604;13.438;2022-10-16T06:14:16;4.90;;;4.20;;
13090;SDS011;6611;52.604;13.438;2022-10-16T06:19:19;2.90;;;2.43;;
13090;SDS011;6611;52.604;13.438;2022-10-16T06:24:20;3.27;;;2.00;;
13090;SDS011;6611;52.604;13.438;2022-10-16T06:29:22;1.70;;;1.60;;
13090;SDS011;6611;52.604;13.438;2022-10-16T06:34:25;2.27;;;2.07;;
13090;SDS011;6611;52.604;13.438;2022-10-16T06:39:26;2.20;;;2.00;;
13090;SDS011;6611;52.604;13.438;2022-10-16T06:44:28;2.10;;;1.90;;
13090;SDS011;6611;52.604;13.438;2022-10-16T06:49:31;3.40;;;1.80;;
13090;SDS011;6611;52.604;13.438;2022-10-16T06:54:32;2.57;;;2.20;;
13090;SDS011;6611;52.604;13.438;2022-10-16T06:59:34;2.57;;;2.30;;
13090;SDS011;6611;52.604;13.438;2022-10-16T07:04:36;2.37;;;2.00;;
13090;SDS011;6611;52.604;13.438;2022-10-16T07:09:38;2.20;;;2.00;;
13090;SDS011;6611;52.604;13.438;2022-10-16T07:14:41;2.30;;;2.10;;
13090;SDS011;6611;52.604;13.438;2022-10-16T07:19:44;3.77;;;1.90;;
13090;SDS011;6611;52.604;13.438;2022-10-16T07:24:46;4.90;;;2.67;;
13090;SDS011;6611;52.604;13.438;2022-10-16T07:29:47;3.33;;;2.53;;
13090;SDS011;6611;52.604;13.438;2022-10-16T07:34:50;1.97;;;1.73;;
13090;SDS011;6611;52.604;13.438;2022-10-16T07:39:51;3.07;;;2.10;;
13090;SDS011;6611;52.604;13.438;2022-10-16T07:44:53;1.97;;;1.77;;
13090;SDS011;6611;52.604;13.438;2022-10-16T07:49:56;2.97;;;1.77;;
13090;SDS011;6611;52.604;13.438;2022-10-16T07:54:57;3.60;;;1.60;;
13090;SDS011;6611;52.604;13.438;2022-10-16T07:59:59;1.47;;;1.37;;
13090;SDS011;6611;52.604;13.438;2022-10-16T08:05:02;1.80;;;1.50;;
13090;SDS011;6611;52.604;13.438;2022-10-16T08:10:04;1.57;;;1.47;;
13090;SDS011;6611;52.604;13.438;2022-10-16T08:15:06;1.47;;;1.30;;
13090;SDS011;6611;52.604;13.438;2022-10-16T08:20:11;1.50;;;1.40;;
13090;SDS011;6611;52.604;13.438;2022-10-16T08:25:12;1.40;;;1.30;;
13090;SDS011;6611;52.604;13.438;2022-10-16T08:30:14;1.30;;;1.20;;
13090;SDS011;6611;52.604;13.438;2022-10-16T08:35:17;1.80;;;0.93;;
13090;SDS011;6611;52.604;13.438;2022-10-16T08:40:20;1.00;;;0.87;;
13090;SDS011;6611;52.604;13.438;2022-10-16T08:45:36;2.10;;;1.13;;
13090;SDS011;6611;52.604;13.438;2022-10-16T08:50:48;0.80;;;0.80;;
13090;SDS011;6611;52.604;13.438;2022-10-16T08:55:52;0.97;;;0.83;;
13090;SDS011;6611;52.604;13.438;2022-10-16T09:00:55;1.10;;;1.00;;
13090;SDS011;6611;52.604;13.438;2022-10-16T09:06:04;1.10;;;1.00;;
13090;SDS011;6611;52.604;13.438;2022-10-16T09:11:14;1.30;;;1.00;;
13090;SDS011;6611;52.604;13.438;2022-10-16T09:16:22;0.83;;;0.80;;
13090;SDS011;6611;52.604;13.438;2022-10-16T09:21:30;0.70;;;0.70;;
13090;SDS011;6611;52.604;13.438;2022-10-16T09:26:33;0.90;;;0.90;;
13090;SDS011;6611;52.604;13.438;2022-10-16T09:31:35;3.53;;;1.03;;
13090;SDS011;6611;52.604;13.438;2022-10-16T09:36:42;0.80;;;0.80;;
13090;SDS011;6611;52.604;13.438;2022-10-16T09:41:45;1.03;;;1.00;;
13090;SDS011;6611;52.604;13.438;2022-10-16T09:46:46;2.83;;;1.10;;
13090;SDS011;6611;52.604;13.438;2022-10-16T09:51:49;1.57;;;0.90;;
13090;SDS011;6611;52.604;13.438;2022-10-16T09:57:03;0.97;;;0.93;;
13090;SDS011;6611;52.604;13.438;2022-10-16T10:02:10;1.10;;;0.80;;
13090;SDS011;6611;52.604;13.438;2022-10-16T10:07:18;0.73;;;0.70;;
13090;SDS011;6611;52.604;13.438;2022-10-16T10:12:25;0.90;;;0.90;;
13090;SDS011;6611;52.604;13.438;2022-10-16T10:17:28;1.00;;;0.90;;
13090;SDS011;6611;52.604;13.438;2022-10-16T10:22:32;1.37;;;0.90;;
13090;SDS011;6611;52.604;13.438;2022-10-16T10:27:51;0.70;;;0.70;;
13090;SDS011;6611;52.604;13.438;2022-10-16T10:33:16;1.30;;;0.80;;
13090;SDS011;6611;52.604;13.438;2022-10-16T10:38:29;1.90;;;0.70;;
13090;SDS011;6611;52.604;13.438;2022-10-16T10:43:39;0.77;;;0.77;;
13090;SDS011;6611;52.604;13.438;2022-10-16T10:48:53;0.93;;;0.70;;
13090;SDS011;6611;52.604;13.438;2022-10-16T10:54:05;0.70;;;0.70;;
13090;SDS011;6611;52.604;13.438;2022-10-16T10:59:28;1.23;;;0.70;;
13090;SDS011;6611;52.604;13.438;2022-10-16T11:04:43;0.60;;;0.60;;
13090;SDS011;6611;52.604;13.438;2022-10-16T11:09:58;1.63;;;0.70;;
13090;SDS011;6611;52.604;13.438;2022-10-16T11:15:04;0.80;;;0.70;;
13090;SDS011;6611;52.604;13.438;2022-10-16T11:20:14;0.63;;;0.60;;
13090;SDS011;6611;52.604;13.438;2022-10-16T11:25:21;0.70;;;0.70;;
13090;SDS011;6611;52.604;13.438;2022-10-16T11:30:26;1.33;;;0.80;;
13090;SDS011;6611;52.604;13.438;2022-10-16T11:35:33;0.93;;;0.60;;
13090;SDS011;6611;52.604;13.438;2022-10-16T11:40:42;0.93;;;0.73;;
13090;SDS011;6611;52.604;13.438;2022-10-16T11:45:48;1.40;;;0.60;;
13090;SDS011;6611;52.604;13.438;2022-10-16T11:50:53;0.40;;;0.40;;
13090;SDS011;6611;52.604;13.438;2022-10-16T11:55:58;0.60;;;0.60;;
13090;SDS011;6611;52.604;13.438;2022-10-16T12:01:01;0.83;;;0.63;;
13090;SDS011;6611;52.604;13.438;2022-10-16T12:06:22;0.30;;;0.30;;
13090;SDS011;6611;52.604;13.438;2022-10-16T12:11:37;0.63;;;0.60;;
13090;SDS011;6611;52.604;13.438;2022-10-16T12:16:50;0.60;;;0.50;;
13090;SDS011;6611;52.604;13.438;2022-10-16T12:21:54;0.50;;;0.40;;
13090;SDS011;6611;52.604;13.438;2022-10-16T12:26:58;0.47;;;0.40;;
13090;SDS011;6611;52.604;13.438;2022-10-16T12:32:01;0.50;;;0.50;;
13090;SDS011;6611;52.604;13.438;2022-10-16T12:37:08;0.90;;;0.60;;
13090;SDS011;6611;52.604;13.438;2022-10-16T12:42:23;1.40;;;0.63;;
13090;SDS011;6611;52.604;13.438;2022-10-16T12:47:37;0.43;;;0.43;;
13090;SDS011;6611;52.604;13.438;2022-10-16T12:52:49;0.50;;;0.50;;
13090;SDS011;6611;52.604;13.438;2022-10-16T12:57:58;0.57;;;0.57;;
13090;SDS011;6611;52.604;13.438;2022-10-16T13:03:17;0.30;;;0.30;;
13090;SDS011;6611;52.604;13.438;2022-10-16T13:08:46;0.80;;;0.50;;
13090;SDS011;6611;52.604;13.438;2022-10-16T13:14:05;0.60;;;0.60;;
13090;SDS011;6611;52.604;13.438;2022-10-16T13:19:22;1.00;;;0.50;;
13090;SDS011;6611;52.604;13.438;2022-10-16T13:24:36;1.87;;;0.50;;
13090;SDS011;6611;52.604;13.438;2022-10-16T13:29:53;0.67;;;0.43;;
13090;SDS011;6611;52.604;13.438;2022-10-16T13:35:01;1.03;;;0.50;;
13090;SDS011;6611;52.604;13.438;2022-10-16T13:40:09;0.40;;;0.37;;
13090;SDS011;6611;52.604;13.438;2022-10-16T13:45:22;0.60;;;0.40;;
13090;SDS011;6611;52.604;13.438;2022-10-16T13:50:26;0.30;;;0.30;;
13090;SDS011;6611;52.604;13.438;2022-10-16T13:55:27;0.50;;;0.50;;
13090;SDS011;6611;52.604;13.438;2022-10-16T14:00:30;1.60;;;0.30;;
13090;SDS011;6611;52.604;13.438;2022-10-16T14:05:32;0.50;;;0.30;;
13090;SDS011;6611;52.604;13.438;2022-10-16T14:10:35;0.30;;;0.30;;
13090;SDS011;6611;52.604;13.438;2022-10-16T14:15:38;1.47;;;1.37;;
13090;SDS011;6611;52.604;13.438;2022-10-16T14:20:39;0.30;;;0.30;;
13090;SDS011;6611;52.604;13.438;2022-10-16T14:25:41;0.40;;;0.40;;
13090;SDS011;6611;52.604;13.438;2022-10-16T14:30:50;0.50;;;0.50;;
13090;SDS011;6611;52.604;13.438;2022-10-16T14:36:01;0.40;;;0.40;;
13090;SDS011;6611;52.604;13.438;2022-10-16T14:41:06;0.27;;;0.27;;
13090;SDS011;6611;52.604;13.438;2022-10-16T14:46:12;0.53;;;0.50;;
13090;SDS011;6611;52.604;13.438;2022-10-16T14:51:15;0.50;;;0.50;;
13090;SDS011;6611;52.604;13.438;2022-10-16T14:56:19;0.37;;;0.37;;
13090;SDS011;6611;52.604;13.438;2022-10-16T15:01:23;2.40;;;0.50;;
13090;SDS011;6611;52.604;13.438;2022-10-16T15:06:25;2.43;;;0.63;;
13090;SDS011;6611;52.604;13.438;2022-10-16T15:11:27;0.50;;;0.50;;
13090;SDS011;6611;52.604;13.438;2022-10-16T15:16:30;0.67;;;0.50;;
13090;SDS011;6611;52.604;13.438;2022-10-16T15:21:32;0.63;;;0.50;;
13090;SDS011;6611;52.604;13.438;2022-10-16T15:26:34;0.90;;;0.90;;
13090;SDS011;6611;52.604;13.438;2022-10-16T15:31:37;2.07;;;0.70;;
13090;SDS011;6611;52.604;13.438;2022-10-16T15:36:38;0.90;;;0.60;;
13090;SDS011;6611;52.604;13.438;2022-10-16T15:41:40;1.13;;;0.60;;
13090;SDS011;6611;52.604;13.438;2022-10-16T15:46:43;0.60;;;0.60;;
13090;SDS011;6611;52.604;13.438;2022-10-16T15:51:45;1.17;;;0.90;;
13090;SDS011;6611;52.604;13.438;2022-10-16T15:56:47;1.57;;;0.60;;
13090;SDS011;6611;52.604;13.438;2022-10-16T16:01:50;1.33;;;0.77;;
13090;SDS011;6611;52.604;13.438;2022-10-16T16:06:51;0.93;;;0.57;;
13090;SDS011;6611;52.604;13.438;2022-10-16T16:11:53;0.77;;;0.57;;
13090;SDS011;6611;52.604;13.438;2022-10-16T16:16:56;0.63;;;0.63;;
13090;SDS011;6611;52.604;13.438;2022-10-16T16:21:58;1.00;;;0.70;;
13090;SDS011;6611;52.604;13.438;2022-10-16T16:26:59;0.67;;;0.60;;
13090;SDS011;6611;52.604;13.438;2022-10-16T16:32:03;0.77;;;0.77;;
13090;SDS011;6611;52.604;13.438;2022-10-16T16:37:04;3.73;;;1.00;;
13090;SDS011;6611;52.604;13.438;2022-10-16T16:42:06;1.83;;;0.90;;
13090;SDS011;6611;52.604;13.438;2022-10-16T16:47:09;3.20;;;1.00;;
13090;SDS011;6611;52.604;13.438;2022-10-16T16:52:11;1.47;;;1.20;;
13090;SDS011;6611;52.604;13.438;2022-10-16T16:57:13;1.77;;;1.20;;
13090;SDS011;6611;52.604;13.438;2022-10-16T17:02:16;1.17;;;1.07;;
13090;SDS011;6611;52.604;13.438;2022-10-16T17:07:17;2.73;;;1.70;;
13090;SDS011;6611;52.604;13.438;2022-10-16T17:12:19;1.80;;;1.33;;
13090;SDS011;6611;52.604;13.438;2022-10-16T17:17:22;3.17;;;1.83;;
13090;SDS011;6611;52.604;13.438;2022-10-16T17:22:23;3.17;;;1.90;;
13090;SDS011;6611;52.604;13.438;2022-10-16T17:27:25;2.97;;;2.50;;
13090;SDS011;6611;52.604;13.438;2022-10-16T17:32:27;3.27;;;2.77;;
13090;SDS011;6611;52.604;13.438;2022-10-16T17:37:29;7.10;;;3.87;;
13090;SDS011;6611;52.604;13.438;2022-10-16T17:42:31;8.80;;;6.37;;
13090;SDS011;6611;52.604;13.438;2022-10-16T17:47:33;9.73;;;5.90;;
13090;SDS011;6611;52.604;13.438;2022-10-16T17:52:35;6.40;;;4.80;;
13090;SDS011;6611;52.604;13.438;2022-10-16T17:57:36;7.63;;;5.27;;
13090;SDS011;6611;52.604;13.438;2022-10-16T18:02:39;8.53;;;6.00;;
13090;SDS011;6611;52.604;13.438;2022-10-16T18:07:41;8.50;;;6.07;;
13090;SDS011;6611;52.604;13.438;2022-10-16T18:12:43;5.27;;;4.67;;
13090;SDS011;6611;52.604;13.438;2022-10-16T18:17:46;6.80;;;4.87;;
13090;SDS011;6611;52.604;13.438;2022-10-16T18:22:47;5.60;;;5.00;;
13090;SDS011;6611;52.604;13.438;2022-10-16T18:27:49;6.80;;;5.47;;
13090;SDS011;6611;52.604;13.438;2022-10-16T18:32:52;7.93;;;6.10;;
13090;SDS011;6611;52.604;13.438;2022-10-16T18:37:53;6.33;;;5.70;;
13090;SDS011;6611;52.604;13.438;2022-10-16T18:42:59;8.07;;;6.40;;
13090;SDS011;6611;52.604;13.438;2022-10-16T18:48:02;7.17;;;6.37;;
13090;SDS011;6611;52.604;13.438;2022-10-16T18:53:04;9.63;;;6.77;;
13090;SDS011;6611;52.604;13.438;2022-10-16T18:58:05;11.77;;;8.00;;
13090;SDS011;6611;52.604;13.438;2022-10-16T19:03:08;10.87;;;7.90;;
13090;SDS011;6611;52.604;13.438;2022-10-16T19:08:10;12.00;;;8.40;;
13090;SDS011;6611;52.604;13.438;2022-10-16T19:13:12;8.93;;;6.97;;
13090;SDS011;6611;52.604;13.438;2022-10-16T19:18:15;10.90;;;7.63;;
13090;SDS011;6611;52.604;13.438;2022-10-16T19:23:16;12.43;;;8.13;;
13090;SDS011;6611;52.604;13.438;2022-10-16T19:28:18;12.53;;;8.53;;
13090;SDS011;6611;52.604;13.438;2022-10-16T19:33:21;13.17;;;8.23;;
13090;SDS011;6611;52.604;13.438;2022-10-16T19:38:22;14.27;;;8.77;;
13090;SDS011;6611;52.604;13.438;2022-10-16T19:43:24;11.33;;;7.93;;
13090;SDS011;6611;52.604;13.438;2022-10-16T19:48:27;18.90;;;8.67;;
13090;SDS011;6611;52.604;13.438;2022-10-16T19:53:29;12.53;;;8.83;;
13090;SDS011;6611;52.604;13.438;2022-10-16T19:58:30;14.10;;;9.33;;
13090;SDS011;6611;52.604;13.438;2022-10-16T20:03:34;13.10;;;9.50;;
13090;SDS011;6611;52.604;13.438;2022-10-16T20:08:36;12.30;;;9.20;;
13090;SDS011;6611;52.604;13.438;2022-10-16T20:13:40;14.43;;;11.20;;
13090;SDS011;6611;52.604;13.438;2022-10-16T20:18:42;16.13;;;10.43;;
13090;SDS011;6611;52.604;13.438;2022-10-16T20:23:45;15.00;;;10.77;;
13090;SDS011;6611;52.604;13.438;2022-10-16T20:28:48;16.87;;;10.67;;
13090;SDS011;6611;52.604;13.438;2022-10-16T20:33:51;16.13;;;11.60;;
13090;SDS011;6611;52.604;13.438;2022-10-16T20:38:55;17.10;;;12.00;;
13090;SDS011;6611;52.604;13.438;2022-10-16T20:43:57;18.63;;;12.23;;
13090;SDS011;6611;52.604;13.438;2022-10-16T20:49:00;19.43;;;12.10;;
13090;SDS011;6611;52.604;13.438;2022-10-16T20:54:03;17.70;;;12.43;;
13090;SDS011;6611;52.604;13.438;2022-10-16T20:59:05;17.77;;;10.80;;
13090;SDS011;6611;52.604;13.438;2022-10-16T21:04:08;17.53;;;10.90;;
13090;SDS011;6611;52.604;13.438;2022-10-16T21:09:10;24.93;;;14.50;;
13090;SDS011;6611;52.604;13.438;2022-10-16T21:14:12;39.33;;;20.73;;
13090;SDS011;6611;52.604;13.438;2022-10-16T21:19:14;25.40;;;15.80;;
13090;SDS011;6611;52.604;13.438;2022-10-16T21:24:16;21.30;;;13.43;;
13090;SDS011;6611;52.604;13.438;2022-10-16T21:29:17;20.67;;;13.67;;
13090;SDS011;6611;52.604;13.438;2022-10-16T21:34:20;19.70;;;11.87;;
13090;SDS011;6611;52.604;13.438;2022-10-16T21:39:22;14.67;;;10.07;;
13090;SDS011;6611;52.604;13.438;2022-10-16T21:44:24;13.70;;;9.57;;
13090;SDS011;6611;52.604;13.438;2022-10-16T21:49:26;11.40;;;8.60;;
13090;SDS011;6611;52.604;13.438;2022-10-16T21:54:28;12.63;;;8.77;;
13090;SDS011;6611;52.604;13.438;2022-10-16T21:59:30;12.57;;;8.40;;
13090;SDS011;6611;52.604;13.438;2022-10-16T22:09:36;14.10;;;7.87;;
13090;SDS011;6611;52.604;13.438;2022-10-16T22:14:38;11.87;;;8.27;;
13090;SDS011;6611;52.604;13.438;2022-10-16T22:19:41;11.17;;;8.20;;
13090;SDS011;6611;52.604;13.438;2022-10-16T22:24:43;13.00;;;8.20;;
13090;SDS011;6611;52.604;13.438;2022-10-16T22:29:44;11.77;;;8.50;;
13090;SDS011;6611;52.604;13.438;2022-10-16T22:34:47;12.33;;;8.20;;
13090;SDS011;6611;52.604;13.438;2022-10-16T22:39:49;12.20;;;8.47;;
13090;SDS011;6611;52.604;13.438;2022-10-16T22:44:50;11.87;;;8.20;;
13090;SDS011;6611;52.604;13.438;2022-10-16T22:49:53;9.97;;;7.67;;
13090;SDS011;6611;52.604;13.438;2022-10-16T22:54:55;13.13;;;7.97;;
13090;SDS011;6611;52.604;13.438;2022-10-16T22:59:56;12.47;;;7.33;;
13090;SDS011;6611;52.604;13.438;2022-10-16T23:04:59;10.33;;;6.63;;
13090;SDS011;6611;52.604;13.438;2022-10-16T23:10:01;9.10;;;6.57;;
13090;SDS011;6611;52.604;13.438;2022-10-16T23:15:03;9.57;;;6.73;;
13090;SDS011;6611;52.604;13.438;2022-10-16T23:20:06;8.93;;;6.33;;
13090;SDS011;6611;52.604;13.438;2022-10-16T23:25:08;8.13;;;6.30;;
13090;SDS011;6611;52.604;13.438;2022-10-16T23:30:10;9.70;;;6.40;;
13090;SDS011;6611;52.604;13.438;2022-10-16T23:35:13;8.47;;;5.67;;
13090;SDS011;6611;52.604;13.438;2022-10-16T23:40:15;7.17;;;5.60;;
13090;SDS011;6611;52.604;13.438;2022-10-16T23:45:16;7.73;;;6.17;;
13090;SDS011;6611;52.604;13.438;2022-10-16T23:50:19;8.50;;;5.50;;
13090;SDS011;6611;52.604;13.438;2022-10-16T23:55:20;6.53;;;5.27;;
